sensor_id;sensor_type;location;lat;lon;timestamp;temperature;humidity
17697;DHT22;8967;47.984;7.842;2023-05-15T00:00:00;13.40;99.90
17697;DHT22;8967;47.984;7.842;2023-05-15T00:02:29;13.40;99.90
17697;DHT22;8967;47.984;7.842;2023-05-15T00:04:58;13.40;99.90
17697;DHT22;8967;47.984;7.842;2023-05-15T00:07:25;13.40;99.90
17697;DHT22;8967;47.984;7.842;2023-05-15T00:09:54;13.40;99.90
17697;DHT22;8967;47.984;7.842;2023-05-15T00:12:25;13.40;99.90
17697;DHT22;8967;47.984;7.842;2023-05-15T00:14:52;13.40;99.90
17697;DHT22;8967;47.984;7.842;2023-05-15T00:17:18;13.40;99.90
17697;DHT22;8967;47.984;7.842;2023-05-15T00:19:45;13.40;99.90
17697;DHT22;8967;47.984;7.842;2023-05-15T00:22:12;13.40;99.90
17697;DHT22;8967;47.984;7.842;2023-05-15T00:24:42;13.30;99.90
17697;DHT22;8967;47.984;7.842;2023-05-15T00:27:08;13.20;99.90
17697;DHT22;8967;47.984;7.842;2023-05-15T00:29:37;13.10;99.90
17697;DHT22;8967;47.984;7.842;2023-05-15T00:32:05;13.20;99.90
17697;DHT22;8967;47.984;7.842;2023-05-15T00:34:32;13.20;99.90
17697;DHT22;8967;47.984;7.842;2023-05-15T00:36:59;13.30;99.90
17697;DHT22;8967;47.984;7.842;2023-05-15T00:39:26;13.30;99.90
17697;DHT22;8967;47.984;7.842;2023-05-15T00:41:55;13.30;99.90
17697;DHT22;8967;47.984;7.842;2023-05-15T00:44:22;13.30;99.90
17697;DHT22;8967;47.984;7.842;2023-05-15T00:46:55;13.40;99.90
17697;DHT22;8967;47.984;7.842;2023-05-15T00:49:23;13.40;99.90
17697;DHT22;8967;47.984;7.842;2023-05-15T00:51:55;13.40;99.90
17697;DHT22;8967;47.984;7.842;2023-05-15T00:54:23;13.40;99.90
17697;DHT22;8967;47.984;7.842;2023-05-15T00:56:50;13.40;99.90
17697;DHT22;8967;47.984;7.842;2023-05-15T00:59:18;13.30;99.90
17697;DHT22;8967;47.984;7.842;2023-05-15T01:01:46;13.30;99.90
17697;DHT22;8967;47.984;7.842;2023-05-15T01:04:14;13.30;99.90
17697;DHT22;8967;47.984;7.842;2023-05-15T01:06:41;13.30;99.90
17697;DHT22;8967;47.984;7.842;2023-05-15T01:09:09;13.30;99.90
17697;DHT22;8967;47.984;7.842;2023-05-15T01:11:37;13.30;99.90
17697;DHT22;8967;47.984;7.842;2023-05-15T01:14:07;13.30;99.90
17697;DHT22;8967;47.984;7.842;2023-05-15T01:16:35;13.30;99.90
17697;DHT22;8967;47.984;7.842;2023-05-15T01:19:04;13.20;99.90
17697;DHT22;8967;47.984;7.842;2023-05-15T01:24:48;13.30;99.90
17697;DHT22;8967;47.984;7.842;2023-05-15T01:27:25;13.20;99.90
17697;DHT22;8967;47.984;7.842;2023-05-15T01:29:59;13.20;99.90
17697;DHT22;8967;47.984;7.842;2023-05-15T01:32:31;13.20;99.90
17697;DHT22;8967;47.984;7.842;2023-05-15T01:35:04;13.30;99.90
17697;DHT22;8967;47.984;7.842;2023-05-15T01:37:41;13.30;99.90
17697;DHT22;8967;47.984;7.842;2023-05-15T01:40:11;13.20;99.90
17697;DHT22;8967;47.984;7.842;2023-05-15T01:42:43;13.20;99.90
17697;DHT22;8967;47.984;7.842;2023-05-15T01:45:20;13.20;99.90
17697;DHT22;8967;47.984;7.842;2023-05-15T01:47:49;13.20;99.90
17697;DHT22;8967;47.984;7.842;2023-05-15T01:50:19;13.10;99.90
17697;DHT22;8967;47.984;7.842;2023-05-15T01:52:49;13.20;99.90
17697;DHT22;8967;47.984;7.842;2023-05-15T01:55:17;13.10;99.90
17697;DHT22;8967;47.984;7.842;2023-05-15T01:57:47;13.10;99.90
17697;DHT22;8967;47.984;7.842;2023-05-15T02:00:16;13.20;99.90
17697;DHT22;8967;47.984;7.842;2023-05-15T02:02:44;13.10;99.90
17697;DHT22;8967;47.984;7.842;2023-05-15T02:05:12;13.20;99.90
17697;DHT22;8967;47.984;7.842;2023-05-15T02:07:41;13.10;99.90
17697;DHT22;8967;47.984;7.842;2023-05-15T02:10:09;13.20;99.90
17697;DHT22;8967;47.984;7.842;2023-05-15T02:12:38;13.10;99.90
17697;DHT22;8967;47.984;7.842;2023-05-15T02:15:08;13.20;99.90
17697;DHT22;8967;47.984;7.842;2023-05-15T02:17:35;13.20;99.90
17697;DHT22;8967;47.984;7.842;2023-05-15T02:20:05;13.20;99.90
17697;DHT22;8967;47.984;7.842;2023-05-15T02:22:32;13.30;99.90
17697;DHT22;8967;47.984;7.842;2023-05-15T02:25:02;13.30;99.90
17697;DHT22;8967;47.984;7.842;2023-05-15T02:27:34;13.30;99.90
17697;DHT22;8967;47.984;7.842;2023-05-15T02:30:13;13.30;99.90
17697;DHT22;8967;47.984;7.842;2023-05-15T02:32:53;13.30;99.90
17697;DHT22;8967;47.984;7.842;2023-05-15T02:35:29;13.20;99.90
17697;DHT22;8967;47.984;7.842;2023-05-15T02:38:01;13.20;99.90
17697;DHT22;8967;47.984;7.842;2023-05-15T02:40:33;13.20;99.90
17697;DHT22;8967;47.984;7.842;2023-05-15T02:43:06;13.20;99.90
17697;DHT22;8967;47.984;7.842;2023-05-15T02:45:35;13.20;99.90
17697;DHT22;8967;47.984;7.842;2023-05-15T02:48:03;13.20;99.90
17697;DHT22;8967;47.984;7.842;2023-05-15T02:50:31;13.10;99.90
17697;DHT22;8967;47.984;7.842;2023-05-15T02:53:01;13.10;99.90
17697;DHT22;8967;47.984;7.842;2023-05-15T02:55:29;13.00;99.90
17697;DHT22;8967;47.984;7.842;2023-05-15T02:57:56;13.00;99.90
17697;DHT22;8967;47.984;7.842;2023-05-15T03:00:25;13.00;99.90
17697;DHT22;8967;47.984;7.842;2023-05-15T03:02:54;12.90;99.90
17697;DHT22;8967;47.984;7.842;2023-05-15T03:05:21;12.90;99.90
17697;DHT22;8967;47.984;7.842;2023-05-15T03:07:47;12.90;99.90
17697;DHT22;8967;47.984;7.842;2023-05-15T03:10:14;12.90;99.90
17697;DHT22;8967;47.984;7.842;2023-05-15T03:12:42;12.90;99.90
17697;DHT22;8967;47.984;7.842;2023-05-15T03:15:09;12.90;99.90
17697;DHT22;8967;47.984;7.842;2023-05-15T03:17:36;12.90;99.90
17697;DHT22;8967;47.984;7.842;2023-05-15T03:20:07;13.00;99.90
17697;DHT22;8967;47.984;7.842;2023-05-15T03:22:38;12.90;99.90
17697;DHT22;8967;47.984;7.842;2023-05-15T03:25:08;12.90;99.90
17697;DHT22;8967;47.984;7.842;2023-05-15T03:27:35;12.90;99.90
17697;DHT22;8967;47.984;7.842;2023-05-15T03:30:02;12.80;99.90
17697;DHT22;8967;47.984;7.842;2023-05-15T03:32:29;12.80;99.90
17697;DHT22;8967;47.984;7.842;2023-05-15T03:34:56;12.80;99.90
17697;DHT22;8967;47.984;7.842;2023-05-15T03:37:24;12.70;99.90
17697;DHT22;8967;47.984;7.842;2023-05-15T03:39:51;12.70;99.90
17697;DHT22;8967;47.984;7.842;2023-05-15T03:42:17;12.70;99.90
17697;DHT22;8967;47.984;7.842;2023-05-15T03:44:48;12.70;99.90
17697;DHT22;8967;47.984;7.842;2023-05-15T03:47:15;12.70;99.90
17697;DHT22;8967;47.984;7.842;2023-05-15T03:49:42;12.70;99.90
17697;DHT22;8967;47.984;7.842;2023-05-15T03:52:11;12.70;99.90
17697;DHT22;8967;47.984;7.842;2023-05-15T03:54:39;12.70;99.90
17697;DHT22;8967;47.984;7.842;2023-05-15T03:57:08;12.70;99.90
17697;DHT22;8967;47.984;7.842;2023-05-15T03:59:35;12.60;99.90
17697;DHT22;8967;47.984;7.842;2023-05-15T04:02:02;12.50;99.90
17697;DHT22;8967;47.984;7.842;2023-05-15T04:04:29;12.60;99.90
17697;DHT22;8967;47.984;7.842;2023-05-15T04:06:56;12.50;99.90
17697;DHT22;8967;47.984;7.842;2023-05-15T04:09:22;12.50;99.90
17697;DHT22;8967;47.984;7.842;2023-05-15T04:11:51;12.50;99.90
17697;DHT22;8967;47.984;7.842;2023-05-15T04:14:18;12.50;99.90
17697;DHT22;8967;47.984;7.842;2023-05-15T04:16:44;12.40;99.90
17697;DHT22;8967;47.984;7.842;2023-05-15T04:19:11;12.40;99.90
17697;DHT22;8967;47.984;7.842;2023-05-15T04:21:38;12.30;99.90
17697;DHT22;8967;47.984;7.842;2023-05-15T04:24:06;12.30;99.90
17697;DHT22;8967;47.984;7.842;2023-05-15T04:26:33;12.20;99.90
17697;DHT22;8967;47.984;7.842;2023-05-15T04:29:02;12.30;99.90
17697;DHT22;8967;47.984;7.842;2023-05-15T04:31:29;12.30;99.90
17697;DHT22;8967;47.984;7.842;2023-05-15T04:33:57;12.30;99.90
17697;DHT22;8967;47.984;7.842;2023-05-15T04:36:24;12.30;99.90
17697;DHT22;8967;47.984;7.842;2023-05-15T04:38:51;12.30;99.90
17697;DHT22;8967;47.984;7.842;2023-05-15T04:41:20;12.30;99.90
17697;DHT22;8967;47.984;7.842;2023-05-15T04:43:47;12.30;99.90
17697;DHT22;8967;47.984;7.842;2023-05-15T04:46:15;12.30;99.90
17697;DHT22;8967;47.984;7.842;2023-05-15T04:48:42;12.30;99.90
17697;DHT22;8967;47.984;7.842;2023-05-15T04:51:09;12.30;99.90
17697;DHT22;8967;47.984;7.842;2023-05-15T04:53:39;12.30;99.90
17697;DHT22;8967;47.984;7.842;2023-05-15T04:56:08;12.40;99.90
17697;DHT22;8967;47.984;7.842;2023-05-15T04:58:35;12.40;99.90
17697;DHT22;8967;47.984;7.842;2023-05-15T05:01:04;12.40;99.90
17697;DHT22;8967;47.984;7.842;2023-05-15T05:03:32;12.40;99.90
17697;DHT22;8967;47.984;7.842;2023-05-15T05:05:59;12.40;99.90
17697;DHT22;8967;47.984;7.842;2023-05-15T05:08:26;12.40;99.90
17697;DHT22;8967;47.984;7.842;2023-05-15T05:10:54;12.40;99.90
17697;DHT22;8967;47.984;7.842;2023-05-15T05:13:22;12.50;99.90
17697;DHT22;8967;47.984;7.842;2023-05-15T05:15:51;12.50;99.90
17697;DHT22;8967;47.984;7.842;2023-05-15T05:18:20;12.50;99.90
17697;DHT22;8967;47.984;7.842;2023-05-15T05:20:48;12.50;99.90
17697;DHT22;8967;47.984;7.842;2023-05-15T05:23:15;12.60;99.90
17697;DHT22;8967;47.984;7.842;2023-05-15T05:25:42;12.60;99.90
17697;DHT22;8967;47.984;7.842;2023-05-15T05:28:09;12.60;99.90
17697;DHT22;8967;47.984;7.842;2023-05-15T05:30:38;12.60;99.90
17697;DHT22;8967;47.984;7.842;2023-05-15T05:33:05;12.60;99.90
17697;DHT22;8967;47.984;7.842;2023-05-15T05:35:32;12.60;99.90
17697;DHT22;8967;47.984;7.842;2023-05-15T05:38:00;12.60;99.90
17697;DHT22;8967;47.984;7.842;2023-05-15T05:40:27;12.60;99.90
17697;DHT22;8967;47.984;7.842;2023-05-15T05:42:54;12.60;99.90
17697;DHT22;8967;47.984;7.842;2023-05-15T05:45:21;12.60;99.90
17697;DHT22;8967;47.984;7.842;2023-05-15T05:47:50;12.60;99.90
17697;DHT22;8967;47.984;7.842;2023-05-15T05:50:17;12.50;99.90
17697;DHT22;8967;47.984;7.842;2023-05-15T05:52:46;12.50;99.90
17697;DHT22;8967;47.984;7.842;2023-05-15T05:55:17;12.40;99.90
17697;DHT22;8967;47.984;7.842;2023-05-15T05:57:43;12.50;99.90
17697;DHT22;8967;47.984;7.842;2023-05-15T06:00:11;12.50;99.90
17697;DHT22;8967;47.984;7.842;2023-05-15T06:02:39;12.50;99.90
17697;DHT22;8967;47.984;7.842;2023-05-15T06:05:06;12.50;99.90
17697;DHT22;8967;47.984;7.842;2023-05-15T06:07:33;12.50;99.90
17697;DHT22;8967;47.984;7.842;2023-05-15T06:10:00;12.50;99.90
17697;DHT22;8967;47.984;7.842;2023-05-15T06:12:28;12.60;99.90
17697;DHT22;8967;47.984;7.842;2023-05-15T06:14:56;12.60;99.90
17697;DHT22;8967;47.984;7.842;2023-05-15T06:17:22;12.60;99.90
17697;DHT22;8967;47.984;7.842;2023-05-15T06:19:49;12.60;99.90
17697;DHT22;8967;47.984;7.842;2023-05-15T06:22:16;12.70;99.90
17697;DHT22;8967;47.984;7.842;2023-05-15T06:24:43;12.70;99.90
17697;DHT22;8967;47.984;7.842;2023-05-15T06:27:10;12.70;99.90
17697;DHT22;8967;47.984;7.842;2023-05-15T06:29:38;12.60;99.90
17697;DHT22;8967;47.984;7.842;2023-05-15T06:32:07;12.60;99.90
17697;DHT22;8967;47.984;7.842;2023-05-15T06:34:34;12.50;99.90
17697;DHT22;8967;47.984;7.842;2023-05-15T06:37:04;12.50;99.90
17697;DHT22;8967;47.984;7.842;2023-05-15T06:39:30;12.50;99.90
17697;DHT22;8967;47.984;7.842;2023-05-15T06:41:57;12.50;99.90
17697;DHT22;8967;47.984;7.842;2023-05-15T06:44:26;12.60;99.90
17697;DHT22;8967;47.984;7.842;2023-05-15T06:46:57;12.60;99.90
17697;DHT22;8967;47.984;7.842;2023-05-15T06:49:24;12.60;99.90
17697;DHT22;8967;47.984;7.842;2023-05-15T06:51:51;12.70;99.90
17697;DHT22;8967;47.984;7.842;2023-05-15T06:54:19;12.70;99.90
17697;DHT22;8967;47.984;7.842;2023-05-15T06:56:46;12.70;99.90
17697;DHT22;8967;47.984;7.842;2023-05-15T06:59:13;12.80;99.90
17697;DHT22;8967;47.984;7.842;2023-05-15T07:01:40;12.80;99.90
17697;DHT22;8967;47.984;7.842;2023-05-15T07:04:08;12.80;99.90
17697;DHT22;8967;47.984;7.842;2023-05-15T07:06:36;12.80;99.90
17697;DHT22;8967;47.984;7.842;2023-05-15T07:09:03;12.90;99.90
17697;DHT22;8967;47.984;7.842;2023-05-15T07:11:30;12.90;99.90
17697;DHT22;8967;47.984;7.842;2023-05-15T07:14:01;12.90;99.90
17697;DHT22;8967;47.984;7.842;2023-05-15T07:16:29;13.00;99.90
17697;DHT22;8967;47.984;7.842;2023-05-15T07:18:59;13.00;99.90
17697;DHT22;8967;47.984;7.842;2023-05-15T07:21:27;13.10;99.90
17697;DHT22;8967;47.984;7.842;2023-05-15T07:23:54;13.20;99.90
17697;DHT22;8967;47.984;7.842;2023-05-15T07:26:23;13.30;99.90
17697;DHT22;8967;47.984;7.842;2023-05-15T07:28:50;13.30;99.90
17697;DHT22;8967;47.984;7.842;2023-05-15T07:31:17;13.40;99.90
17697;DHT22;8967;47.984;7.842;2023-05-15T07:33:44;13.40;99.90
17697;DHT22;8967;47.984;7.842;2023-05-15T07:36:11;13.40;99.90
17697;DHT22;8967;47.984;7.842;2023-05-15T07:38:39;13.50;99.90
17697;DHT22;8967;47.984;7.842;2023-05-15T07:41:06;13.50;99.90
17697;DHT22;8967;47.984;7.842;2023-05-15T07:43:33;13.60;99.90
17697;DHT22;8967;47.984;7.842;2023-05-15T07:46:00;13.70;99.90
17697;DHT22;8967;47.984;7.842;2023-05-15T07:48:27;13.70;99.90
17697;DHT22;8967;47.984;7.842;2023-05-15T07:50:54;13.70;99.90
17697;DHT22;8967;47.984;7.842;2023-05-15T07:53:21;13.80;99.90
17697;DHT22;8967;47.984;7.842;2023-05-15T07:55:50;13.80;99.90
17697;DHT22;8967;47.984;7.842;2023-05-15T07:58:17;13.90;99.90
17697;DHT22;8967;47.984;7.842;2023-05-15T08:00:44;13.90;99.90
17697;DHT22;8967;47.984;7.842;2023-05-15T08:03:11;14.00;99.90
17697;DHT22;8967;47.984;7.842;2023-05-15T08:05:40;14.00;99.90
17697;DHT22;8967;47.984;7.842;2023-05-15T08:08:07;14.00;99.90
17697;DHT22;8967;47.984;7.842;2023-05-15T08:10:34;14.10;99.90
17697;DHT22;8967;47.984;7.842;2023-05-15T08:13:02;14.10;99.90
17697;DHT22;8967;47.984;7.842;2023-05-15T08:15:29;14.20;99.90
17697;DHT22;8967;47.984;7.842;2023-05-15T08:17:56;14.20;99.90
17697;DHT22;8967;47.984;7.842;2023-05-15T08:20:23;14.30;99.90
17697;DHT22;8967;47.984;7.842;2023-05-15T08:22:50;14.40;99.90
17697;DHT22;8967;47.984;7.842;2023-05-15T08:25:17;14.50;99.90
17697;DHT22;8967;47.984;7.842;2023-05-15T08:27:44;14.60;99.90
17697;DHT22;8967;47.984;7.842;2023-05-15T08:30:13;14.60;99.90
17697;DHT22;8967;47.984;7.842;2023-05-15T08:32:41;14.70;99.90
17697;DHT22;8967;47.984;7.842;2023-05-15T08:35:08;14.80;99.90
17697;DHT22;8967;47.984;7.842;2023-05-15T08:37:36;14.80;99.90
17697;DHT22;8967;47.984;7.842;2023-05-15T08:40:06;14.90;99.90
17697;DHT22;8967;47.984;7.842;2023-05-15T08:42:38;14.90;99.90
17697;DHT22;8967;47.984;7.842;2023-05-15T08:45:09;15.00;99.90
17697;DHT22;8967;47.984;7.842;2023-05-15T08:47:39;15.00;99.90
17697;DHT22;8967;47.984;7.842;2023-05-15T08:50:10;15.00;99.90
17697;DHT22;8967;47.984;7.842;2023-05-15T08:52:40;15.00;99.90
17697;DHT22;8967;47.984;7.842;2023-05-15T08:55:08;15.10;99.90
17697;DHT22;8967;47.984;7.842;2023-05-15T08:57:36;15.10;99.90
17697;DHT22;8967;47.984;7.842;2023-05-15T09:00:04;15.10;99.90
17697;DHT22;8967;47.984;7.842;2023-05-15T09:02:33;15.10;99.90
17697;DHT22;8967;47.984;7.842;2023-05-15T09:05:02;15.20;99.90
17697;DHT22;8967;47.984;7.842;2023-05-15T09:07:30;15.20;99.90
17697;DHT22;8967;47.984;7.842;2023-05-15T09:09:57;15.20;99.90
17697;DHT22;8967;47.984;7.842;2023-05-15T09:12:25;15.30;99.90
17697;DHT22;8967;47.984;7.842;2023-05-15T09:15:07;15.30;99.90
17697;DHT22;8967;47.984;7.842;2023-05-15T09:17:34;15.40;99.90
17697;DHT22;8967;47.984;7.842;2023-05-15T09:20:03;15.40;99.90
17697;DHT22;8967;47.984;7.842;2023-05-15T09:22:33;15.40;99.90
17697;DHT22;8967;47.984;7.842;2023-05-15T09:25:00;15.50;99.90
17697;DHT22;8967;47.984;7.842;2023-05-15T09:27:28;15.50;99.90
17697;DHT22;8967;47.984;7.842;2023-05-15T09:30:07;15.50;99.90
17697;DHT22;8967;47.984;7.842;2023-05-15T09:32:34;15.60;99.90
17697;DHT22;8967;47.984;7.842;2023-05-15T09:35:05;15.60;99.90
17697;DHT22;8967;47.984;7.842;2023-05-15T09:37:57;15.60;99.90
17697;DHT22;8967;47.984;7.842;2023-05-15T09:40:28;15.70;99.90
17697;DHT22;8967;47.984;7.842;2023-05-15T09:42:55;15.70;99.90
17697;DHT22;8967;47.984;7.842;2023-05-15T09:45:22;15.80;99.90
17697;DHT22;8967;47.984;7.842;2023-05-15T09:47:51;15.80;99.90
17697;DHT22;8967;47.984;7.842;2023-05-15T09:50:22;15.80;99.90
17697;DHT22;8967;47.984;7.842;2023-05-15T09:52:51;15.90;99.90
17697;DHT22;8967;47.984;7.842;2023-05-15T09:55:21;15.90;99.90
17697;DHT22;8967;47.984;7.842;2023-05-15T09:58:05;16.00;99.90
17697;DHT22;8967;47.984;7.842;2023-05-15T10:00:32;16.00;99.90
17697;DHT22;8967;47.984;7.842;2023-05-15T10:03:00;16.00;99.90
17697;DHT22;8967;47.984;7.842;2023-05-15T10:05:29;16.10;99.90
17697;DHT22;8967;47.984;7.842;2023-05-15T10:07:57;16.10;99.90
17697;DHT22;8967;47.984;7.842;2023-05-15T10:10:25;16.10;99.90
17697;DHT22;8967;47.984;7.842;2023-05-15T10:12:54;16.10;99.90
17697;DHT22;8967;47.984;7.842;2023-05-15T10:15:23;16.20;99.90
17697;DHT22;8967;47.984;7.842;2023-05-15T10:17:51;16.20;99.90
17697;DHT22;8967;47.984;7.842;2023-05-15T10:20:19;16.20;99.90
17697;DHT22;8967;47.984;7.842;2023-05-15T10:22:50;16.30;99.90
17697;DHT22;8967;47.984;7.842;2023-05-15T10:25:22;16.30;99.90
17697;DHT22;8967;47.984;7.842;2023-05-15T10:27:51;16.30;99.90
17697;DHT22;8967;47.984;7.842;2023-05-15T10:30:20;16.30;99.90
17697;DHT22;8967;47.984;7.842;2023-05-15T10:32:48;16.40;99.90
17697;DHT22;8967;47.984;7.842;2023-05-15T10:35:16;16.40;99.90
17697;DHT22;8967;47.984;7.842;2023-05-15T10:37:44;16.40;99.90
17697;DHT22;8967;47.984;7.842;2023-05-15T10:40:14;16.40;99.90
17697;DHT22;8967;47.984;7.842;2023-05-15T10:42:42;16.50;99.90
17697;DHT22;8967;47.984;7.842;2023-05-15T10:45:10;16.50;99.90
17697;DHT22;8967;47.984;7.842;2023-05-15T10:47:38;16.50;99.90
17697;DHT22;8967;47.984;7.842;2023-05-15T10:50:08;16.50;99.90
17697;DHT22;8967;47.984;7.842;2023-05-15T10:52:36;16.50;99.90
17697;DHT22;8967;47.984;7.842;2023-05-15T10:55:07;16.50;99.90
17697;DHT22;8967;47.984;7.842;2023-05-15T10:57:36;16.60;99.90
17697;DHT22;8967;47.984;7.842;2023-05-15T11:00:23;16.60;99.90
17697;DHT22;8967;47.984;7.842;2023-05-15T11:02:51;16.60;99.90
17697;DHT22;8967;47.984;7.842;2023-05-15T11:05:21;16.70;99.90
17697;DHT22;8967;47.984;7.842;2023-05-15T11:10:54;16.70;99.50
17697;DHT22;8967;47.984;7.842;2023-05-15T11:13:23;16.70;99.40
17697;DHT22;8967;47.984;7.842;2023-05-15T11:15:53;16.70;99.40
17697;DHT22;8967;47.984;7.842;2023-05-15T11:18:21;16.70;99.20
17697;DHT22;8967;47.984;7.842;2023-05-15T11:21:06;16.70;99.00
17697;DHT22;8967;47.984;7.842;2023-05-15T11:23:38;16.70;98.40
17697;DHT22;8967;47.984;7.842;2023-05-15T11:26:06;16.70;98.70
17697;DHT22;8967;47.984;7.842;2023-05-15T11:28:41;16.70;98.70
17697;DHT22;8967;47.984;7.842;2023-05-15T11:31:11;16.70;98.80
17697;DHT22;8967;47.984;7.842;2023-05-15T11:33:38;16.70;98.70
17697;DHT22;8967;47.984;7.842;2023-05-15T11:36:06;16.80;99.10
17697;DHT22;8967;47.984;7.842;2023-05-15T11:38:37;16.80;98.90
17697;DHT22;8967;47.984;7.842;2023-05-15T11:41:17;16.80;98.90
17697;DHT22;8967;47.984;7.842;2023-05-15T11:43:47;16.90;98.50
17697;DHT22;8967;47.984;7.842;2023-05-15T11:46:14;16.90;98.40
17697;DHT22;8967;47.984;7.842;2023-05-15T11:48:43;16.80;98.30
17697;DHT22;8967;47.984;7.842;2023-05-15T11:51:15;16.90;98.30
17697;DHT22;8967;47.984;7.842;2023-05-15T11:53:43;16.80;98.50
17697;DHT22;8967;47.984;7.842;2023-05-15T11:56:15;16.90;98.50
17697;DHT22;8967;47.984;7.842;2023-05-15T11:58:42;16.90;98.50
17697;DHT22;8967;47.984;7.842;2023-05-15T12:01:11;17.00;98.20
17697;DHT22;8967;47.984;7.842;2023-05-15T12:03:40;17.00;98.10
17697;DHT22;8967;47.984;7.842;2023-05-15T12:06:09;17.00;97.60
17697;DHT22;8967;47.984;7.842;2023-05-15T12:08:36;17.00;97.70
17697;DHT22;8967;47.984;7.842;2023-05-15T12:11:04;17.00;97.80
17697;DHT22;8967;47.984;7.842;2023-05-15T12:13:31;17.00;97.90
17697;DHT22;8967;47.984;7.842;2023-05-15T12:16:00;17.10;97.90
17697;DHT22;8967;47.984;7.842;2023-05-15T12:18:29;17.20;97.80
17697;DHT22;8967;47.984;7.842;2023-05-15T12:20:56;17.20;97.60
17697;DHT22;8967;47.984;7.842;2023-05-15T12:23:25;17.20;97.60
17697;DHT22;8967;47.984;7.842;2023-05-15T12:26:00;17.20;97.40
17697;DHT22;8967;47.984;7.842;2023-05-15T12:28:28;17.30;97.20
17697;DHT22;8967;47.984;7.842;2023-05-15T12:30:56;17.30;97.30
17697;DHT22;8967;47.984;7.842;2023-05-15T12:33:23;17.30;97.50
17697;DHT22;8967;47.984;7.842;2023-05-15T12:35:54;17.30;97.60
17697;DHT22;8967;47.984;7.842;2023-05-15T12:38:22;17.40;97.60
17697;DHT22;8967;47.984;7.842;2023-05-15T12:40:51;17.40;97.60
17697;DHT22;8967;47.984;7.842;2023-05-15T12:43:19;17.40;97.40
17697;DHT22;8967;47.984;7.842;2023-05-15T12:45:51;17.40;97.30
17697;DHT22;8967;47.984;7.842;2023-05-15T12:48:18;17.40;97.30
17697;DHT22;8967;47.984;7.842;2023-05-15T12:50:45;17.50;97.00
17697;DHT22;8967;47.984;7.842;2023-05-15T12:53:14;17.50;96.70
17697;DHT22;8967;47.984;7.842;2023-05-15T12:55:43;17.50;96.30
17697;DHT22;8967;47.984;7.842;2023-05-15T12:58:11;17.60;96.50
17697;DHT22;8967;47.984;7.842;2023-05-15T13:00:40;17.60;96.70
17697;DHT22;8967;47.984;7.842;2023-05-15T13:03:09;17.70;97.00
17697;DHT22;8967;47.984;7.842;2023-05-15T13:05:41;17.70;96.80
17697;DHT22;8967;47.984;7.842;2023-05-15T13:08:08;17.80;96.70
17697;DHT22;8967;47.984;7.842;2023-05-15T13:10:41;17.80;96.30
17697;DHT22;8967;47.984;7.842;2023-05-15T13:13:10;17.80;96.10
17697;DHT22;8967;47.984;7.842;2023-05-15T13:15:38;17.90;95.90
17697;DHT22;8967;47.984;7.842;2023-05-15T13:18:07;17.90;95.90
17697;DHT22;8967;47.984;7.842;2023-05-15T13:20:37;17.90;95.90
17697;DHT22;8967;47.984;7.842;2023-05-15T13:23:07;17.90;95.70
17697;DHT22;8967;47.984;7.842;2023-05-15T13:25:34;17.90;95.60
17697;DHT22;8967;47.984;7.842;2023-05-15T13:28:04;17.90;95.50
17697;DHT22;8967;47.984;7.842;2023-05-15T13:30:32;17.90;95.50
17697;DHT22;8967;47.984;7.842;2023-05-15T13:33:00;17.90;95.60
17697;DHT22;8967;47.984;7.842;2023-05-15T13:35:27;17.90;95.60
17697;DHT22;8967;47.984;7.842;2023-05-15T13:37:54;18.00;95.70
17697;DHT22;8967;47.984;7.842;2023-05-15T13:40:22;17.90;95.60
17697;DHT22;8967;47.984;7.842;2023-05-15T13:46:34;17.90;95.20
17697;DHT22;8967;47.984;7.842;2023-05-15T13:49:36;17.90;95.10
17697;DHT22;8967;47.984;7.842;2023-05-15T13:52:04;18.00;95.00
17697;DHT22;8967;47.984;7.842;2023-05-15T13:54:31;18.00;94.80
17697;DHT22;8967;47.984;7.842;2023-05-15T13:56:58;18.10;94.80
17697;DHT22;8967;47.984;7.842;2023-05-15T13:59:26;18.10;94.50
17697;DHT22;8967;47.984;7.842;2023-05-15T14:01:54;18.00;94.40
17697;DHT22;8967;47.984;7.842;2023-05-15T14:04:21;18.00;94.20
17697;DHT22;8967;47.984;7.842;2023-05-15T14:06:48;18.00;94.10
17697;DHT22;8967;47.984;7.842;2023-05-15T14:09:15;18.00;94.10
17697;DHT22;8967;47.984;7.842;2023-05-15T14:11:42;18.00;93.80
17697;DHT22;8967;47.984;7.842;2023-05-15T14:14:09;18.00;93.80
17697;DHT22;8967;47.984;7.842;2023-05-15T14:16:38;18.00;93.70
17697;DHT22;8967;47.984;7.842;2023-05-15T14:19:06;18.00;94.10
17697;DHT22;8967;47.984;7.842;2023-05-15T14:21:35;18.00;93.70
17697;DHT22;8967;47.984;7.842;2023-05-15T14:24:03;18.00;93.70
17697;DHT22;8967;47.984;7.842;2023-05-15T14:26:30;18.00;93.70
17697;DHT22;8967;47.984;7.842;2023-05-15T14:28:57;18.10;93.70
17697;DHT22;8967;47.984;7.842;2023-05-15T14:31:24;18.00;93.50
17697;DHT22;8967;47.984;7.842;2023-05-15T14:33:51;18.00;93.70
17697;DHT22;8967;47.984;7.842;2023-05-15T14:36:22;18.00;93.80
17697;DHT22;8967;47.984;7.842;2023-05-15T14:38:51;18.00;94.00
17697;DHT22;8967;47.984;7.842;2023-05-15T14:41:18;18.10;93.60
17697;DHT22;8967;47.984;7.842;2023-05-15T14:43:46;18.00;92.50
17697;DHT22;8967;47.984;7.842;2023-05-15T14:46:15;18.00;92.20
17697;DHT22;8967;47.984;7.842;2023-05-15T14:48:42;17.90;91.60
17697;DHT22;8967;47.984;7.842;2023-05-15T14:51:11;17.80;91.60
17697;DHT22;8967;47.984;7.842;2023-05-15T14:53:40;17.80;91.20
17697;DHT22;8967;47.984;7.842;2023-05-15T14:56:06;17.70;91.20
17697;DHT22;8967;47.984;7.842;2023-05-15T14:58:33;17.60;91.30
17697;DHT22;8967;47.984;7.842;2023-05-15T15:01:01;17.60;91.00
17697;DHT22;8967;47.984;7.842;2023-05-15T15:03:29;17.50;91.80
17697;DHT22;8967;47.984;7.842;2023-05-15T15:05:55;17.40;92.10
17697;DHT22;8967;47.984;7.842;2023-05-15T15:08:22;17.40;92.70
17697;DHT22;8967;47.984;7.842;2023-05-15T15:10:51;17.30;93.00
17697;DHT22;8967;47.984;7.842;2023-05-15T15:13:18;17.30;93.60
17697;DHT22;8967;47.984;7.842;2023-05-15T15:15:45;17.20;93.60
17697;DHT22;8967;47.984;7.842;2023-05-15T15:18:15;17.20;93.80
17697;DHT22;8967;47.984;7.842;2023-05-15T15:20:41;17.20;93.70
17697;DHT22;8967;47.984;7.842;2023-05-15T15:23:08;17.10;93.80
17697;DHT22;8967;47.984;7.842;2023-05-15T15:25:35;17.10;93.90
17697;DHT22;8967;47.984;7.842;2023-05-15T15:28:04;17.20;94.20
17697;DHT22;8967;47.984;7.842;2023-05-15T15:30:31;17.20;94.30
17697;DHT22;8967;47.984;7.842;2023-05-15T15:32:59;17.20;94.40
17697;DHT22;8967;47.984;7.842;2023-05-15T15:35:26;17.20;94.00
17697;DHT22;8967;47.984;7.842;2023-05-15T15:37:53;17.20;94.30
17697;DHT22;8967;47.984;7.842;2023-05-15T15:40:21;17.20;94.10
17697;DHT22;8967;47.984;7.842;2023-05-15T15:42:48;17.20;94.30
17697;DHT22;8967;47.984;7.842;2023-05-15T15:45:17;17.20;94.30
17697;DHT22;8967;47.984;7.842;2023-05-15T15:47:44;17.20;94.30
17697;DHT22;8967;47.984;7.842;2023-05-15T15:50:13;17.20;94.20
17697;DHT22;8967;47.984;7.842;2023-05-15T15:52:40;17.30;93.80
17697;DHT22;8967;47.984;7.842;2023-05-15T15:55:08;17.30;93.00
17697;DHT22;8967;47.984;7.842;2023-05-15T15:57:35;17.30;92.70
17697;DHT22;8967;47.984;7.842;2023-05-15T16:00:05;17.30;92.60
17697;DHT22;8967;47.984;7.842;2023-05-15T16:02:34;17.30;92.70